createdAt,value
2022-10-14T00:02:45.362Z,7.63
2022-10-14T00:07:47.218Z,6.93
2022-10-14T00:12:50.511Z,8.15
2022-10-14T00:17:52.317Z,7.15
2022-10-14T00:22:54.168Z,7.63
2022-10-14T00:27:56.476Z,7.03
2022-10-14T00:32:58.327Z,7.82
2022-10-14T00:38:00.600Z,7.43
2022-10-14T00:43:02.461Z,8.38
2022-10-14T00:48:04.590Z,9.20
2022-10-14T00:53:06.490Z,7.93
2022-10-14T00:58:09.553Z,8.18
2022-10-14T01:03:22.096Z,8.82
2022-10-14T01:08:35.983Z,9.20
2022-10-14T01:13:43.692Z,8.45
2022-10-14T01:19:00.993Z,9.13
2022-10-14T01:24:30.681Z,6.47
2022-10-14T01:29:50.079Z,5.93
2022-10-14T01:35:00.823Z,6.70
2022-10-14T01:40:08.802Z,5.88
2022-10-14T01:45:21.833Z,6.70
2022-10-14T01:50:27.138Z,6.53
2022-10-14T01:55:33.356Z,6.15
2022-10-14T02:00:36.212Z,5.72
2022-10-14T02:05:57.060Z,6.28
2022-10-14T02:11:08.951Z,6.07
2022-10-14T02:16:17.022Z,6.60
2022-10-14T02:21:40.126Z,6.40
2022-10-14T02:26:43.281Z,6.75
2022-10-14T02:31:46.604Z,5.97
2022-10-14T02:36:50.107Z,6.70
2022-10-14T02:41:52.059Z,6.88
2022-10-14T02:46:56.348Z,6.68
2022-10-14T02:51:58.166Z,6.60
2022-10-14T02:57:00.039Z,6.43
2022-10-14T03:02:02.093Z,6.57
2022-10-14T03:07:04.232Z,6.72
2022-10-14T03:12:09.395Z,6.40
2022-10-14T03:17:11.729Z,6.03
2022-10-14T03:22:14.892Z,6.38
2022-10-14T03:27:16.888Z,6.10
2022-10-14T03:32:21.972Z,6.30
2022-10-14T03:37:50.205Z,6.72
2022-10-14T03:43:01.360Z,6.22
2022-10-14T03:48:11.272Z,7.05
2022-10-14T03:53:15.112Z,7.78
2022-10-14T03:58:18.424Z,7.40
2022-10-14T04:03:25.465Z,8.98
2022-10-14T04:08:29.279Z,9.32
2022-10-14T04:13:37.123Z,8.13
2022-10-14T04:18:39.953Z,8.07
2022-10-14T04:23:43.588Z,7.47
2022-10-14T04:28:51.141Z,8.10
2022-10-14T04:34:06.363Z,8.10
2022-10-14T04:39:15.424Z,7.75
2022-10-14T04:44:17.506Z,7.93
2022-10-14T04:49:24.767Z,8.30
2022-10-14T04:54:36.806Z,7.80
2022-10-14T04:59:38.788Z,7.07
2022-10-14T05:04:46.595Z,7.38
2022-10-14T05:09:52.065Z,6.90
2022-10-14T05:15:01.620Z,7.63
2022-10-14T05:20:12.209Z,7.13
2022-10-14T05:25:15.748Z,6.82
2022-10-14T05:30:18.785Z,7.10
2022-10-14T05:35:40.136Z,6.75
2022-10-14T05:40:57.250Z,6.03
2022-10-14T05:45:59.489Z,6.70
2022-10-14T05:51:03.997Z,6.68
2022-10-14T05:56:10.310Z,7.38
2022-10-14T06:01:14.349Z,7.38
2022-10-14T06:06:17.944Z,7.43
2022-10-14T06:11:19.809Z,6.60
2022-10-14T06:16:22.331Z,6.25
2022-10-14T06:21:24.595Z,6.90
2022-10-14T06:26:26.548Z,6.55
2022-10-14T06:31:32.159Z,6.72
2022-10-14T06:36:35.466Z,7.30
2022-10-14T06:41:37.385Z,7.95
2022-10-14T06:46:39.269Z,7.05
2022-10-14T06:51:41.085Z,7.47
2022-10-14T06:56:42.908Z,7.88
2022-10-14T07:01:44.809Z,7.13
2022-10-14T07:06:46.824Z,8.00
2022-10-14T07:11:48.668Z,7.10
2022-10-14T07:16:50.889Z,8.05
2022-10-14T07:21:52.763Z,7.25
2022-10-14T07:26:54.621Z,8.40
2022-10-14T07:31:56.538Z,7.60
2022-10-14T07:36:58.331Z,7.65
2022-10-14T07:42:00.143Z,7.43
2022-10-14T07:47:03.274Z,7.40
2022-10-14T07:52:05.623Z,7.32
2022-10-14T07:57:07.536Z,6.20
2022-10-14T08:02:11.513Z,5.88
2022-10-14T08:07:14.606Z,5.85
2022-10-14T08:12:16.551Z,5.60
2022-10-14T08:17:18.351Z,5.35
2022-10-14T08:22:20.538Z,5.45
2022-10-14T08:27:22.618Z,5.93
2022-10-14T08:32:24.891Z,5.78
2022-10-14T08:37:26.974Z,5.03
2022-10-14T08:43:14.606Z,4.68
2022-10-14T08:48:23.219Z,5.07
2022-10-14T08:53:40.431Z,4.28
2022-10-14T08:58:54.464Z,4.50
2022-10-14T09:04:16.285Z,4.93
2022-10-14T09:09:28.529Z,4.15
2022-10-14T09:14:36.195Z,4.13
2022-10-14T09:19:46.970Z,4.90
2022-10-14T09:24:48.773Z,4.57
2022-10-14T09:30:00.417Z,4.20
2022-10-14T09:35:03.490Z,3.53
2022-10-14T09:40:14.296Z,4.03
2022-10-14T09:45:22.735Z,4.75
2022-10-14T09:50:36.952Z,4.60
2022-10-14T09:55:48.089Z,3.92
2022-10-14T10:00:57.515Z,4.53
2022-10-14T10:06:04.489Z,3.90
2022-10-14T10:11:10.600Z,3.85
2022-10-14T10:16:31.572Z,3.17
2022-10-14T10:21:33.521Z,3.38
2022-10-14T10:26:35.360Z,2.42
2022-10-14T10:31:55.842Z,2.25
2022-10-14T10:37:19.577Z,3.00
2022-10-14T10:42:28.383Z,2.38
2022-10-14T10:47:41.266Z,2.75
2022-10-14T10:53:04.274Z,2.00
2022-10-14T10:58:10.008Z,2.38
2022-10-14T11:03:34.855Z,2.83
2022-10-14T11:09:11.874Z,3.33
2022-10-14T11:15:10.990Z,2.53
2022-10-14T11:20:30.670Z,2.60
2022-10-14T11:31:51.627Z,3.10
2022-10-14T11:37:24.951Z,3.38
2022-10-14T11:42:57.538Z,2.83
2022-10-14T11:58:48.671Z,2.53
2022-10-14T12:04:04.475Z,2.72
2022-10-14T12:09:25.539Z,2.83
2022-10-14T12:14:35.107Z,2.97
2022-10-14T12:19:37.600Z,3.20
2022-10-14T12:24:49.116Z,3.05
2022-10-14T12:29:52.530Z,3.33
2022-10-14T12:34:56.753Z,3.00
2022-10-14T12:40:07.494Z,3.35
2022-10-14T12:45:27.588Z,2.80
2022-10-14T12:50:40.813Z,2.50
2022-10-14T12:55:55.783Z,4.35
2022-10-14T13:01:20.037Z,2.40
2022-10-14T13:06:39.204Z,3.50
2022-10-14T13:11:46.799Z,2.47
2022-10-14T13:16:51.451Z,2.70
2022-10-14T13:21:53.820Z,2.55
2022-10-14T13:26:55.631Z,2.00
2022-10-14T13:32:14.827Z,1.73
2022-10-14T13:37:27.677Z,1.85
2022-10-14T13:42:34.972Z,1.67
2022-10-14T13:47:37.154Z,2.80
2022-10-14T13:52:39.843Z,2.92
2022-10-14T13:58:10.838Z,6.32
2022-10-14T14:03:31.163Z,8.63
2022-10-14T14:08:43.135Z,10.23
2022-10-14T14:14:11.762Z,8.48
2022-10-14T14:19:22.283Z,8.18
2022-10-14T14:24:25.770Z,8.63
2022-10-14T14:29:31.223Z,5.07
2022-10-14T14:34:34.720Z,2.70
2022-10-14T14:39:36.853Z,3.45
2022-10-14T14:44:39.384Z,3.58
2022-10-14T14:49:41.523Z,4.18
2022-10-14T14:54:48.012Z,4.45
2022-10-14T15:00:01.975Z,5.25
2022-10-14T15:05:09.449Z,5.63
2022-10-14T15:10:28.162Z,5.43
2022-10-14T15:15:33.803Z,6.18
2022-10-14T15:20:42.251Z,6.07
2022-10-14T15:25:57.621Z,6.38
2022-10-14T15:31:03.158Z,6.32
2022-10-14T15:36:11.854Z,6.05
2022-10-14T15:41:13.638Z,5.80
2022-10-14T15:46:33.907Z,7.50
2022-10-14T15:51:35.724Z,6.95
2022-10-14T15:56:39.498Z,6.43
2022-10-14T16:01:43.114Z,6.40
2022-10-14T16:06:45.621Z,6.78
2022-10-14T16:11:49.198Z,6.38
2022-10-14T16:16:51.014Z,5.63
2022-10-14T16:21:52.888Z,5.32
2022-10-14T16:26:57.644Z,6.03
2022-10-14T16:31:59.462Z,6.70
2022-10-14T16:37:01.516Z,12.18
2022-10-14T16:42:03.557Z,10.93
2022-10-14T16:47:17.770Z,12.45
2022-10-14T16:52:19.814Z,16.00
2022-10-14T16:57:21.795Z,15.60
2022-10-14T17:02:31.855Z,15.30
2022-10-14T17:07:34.057Z,15.52
2022-10-14T17:12:36.454Z,15.77
2022-10-14T17:17:40.152Z,28.40
2022-10-14T17:22:43.095Z,19.90
2022-10-14T17:27:45.270Z,17.40
2022-10-14T17:32:47.286Z,17.42
2022-10-14T17:37:49.254Z,17.65
2022-10-14T17:42:51.255Z,17.20
2022-10-14T17:47:56.150Z,18.80
2022-10-14T17:52:59.022Z,19.65
2022-10-14T17:58:01.134Z,21.00
2022-10-14T18:03:03.097Z,19.77
2022-10-14T18:08:05.256Z,18.40
2022-10-14T18:13:07.205Z,18.67
2022-10-14T18:18:09.477Z,18.98
2022-10-14T18:23:12.649Z,17.15
2022-10-14T18:28:15.104Z,18.15
2022-10-14T18:33:17.501Z,17.42
2022-10-14T18:38:19.522Z,17.40
2022-10-14T18:43:21.552Z,18.05
2022-10-14T18:48:24.009Z,16.70
2022-10-14T18:53:27.115Z,16.52
2022-10-14T18:58:29.439Z,16.60
2022-10-14T19:03:32.959Z,16.27
2022-10-14T19:08:37.549Z,19.40
2022-10-14T19:13:40.728Z,16.40
2022-10-14T19:18:42.850Z,18.45
2022-10-14T19:23:45.492Z,20.15
2022-10-14T19:28:49.925Z,58.00
2022-10-14T19:33:53.430Z,16.40
2022-10-14T19:38:58.181Z,18.00
2022-10-14T19:44:01.053Z,15.32
2022-10-14T19:49:04.429Z,17.77
2022-10-14T19:54:06.784Z,16.67
2022-10-14T19:59:10.754Z,16.33
2022-10-14T20:04:12.993Z,16.70
2022-10-14T20:09:15.141Z,15.98
2022-10-14T20:14:18.654Z,18.25
2022-10-14T20:19:20.538Z,16.05
2022-10-14T20:24:22.400Z,13.98
2022-10-14T20:29:24.347Z,13.93
2022-10-14T20:34:26.231Z,12.25
2022-10-14T20:39:29.737Z,12.25
2022-10-14T20:44:31.635Z,11.80
2022-10-14T20:49:33.474Z,9.43
2022-10-14T20:54:35.809Z,10.50
2022-10-14T20:59:41.516Z,9.90
2022-10-14T21:04:53.129Z,10.00
2022-10-14T21:09:55.142Z,8.52
2022-10-14T21:14:56.951Z,8.88
2022-10-14T21:19:58.822Z,6.45
2022-10-14T21:25:00.644Z,6.45
2022-10-14T21:30:02.451Z,5.75
2022-10-14T21:35:04.712Z,4.53
2022-10-14T21:40:07.262Z,4.75
2022-10-14T21:45:09.461Z,4.65
2022-10-14T21:50:11.343Z,5.03
2022-10-14T21:55:13.155Z,4.72
2022-10-14T22:00:15.213Z,4.55
2022-10-14T22:05:17.423Z,4.65
2022-10-14T22:10:37.995Z,4.60
2022-10-14T22:15:43.581Z,3.85
2022-10-14T22:20:45.687Z,4.00
2022-10-14T22:25:47.511Z,4.72
2022-10-14T22:30:49.332Z,4.32
2022-10-14T22:35:51.465Z,4.28
2022-10-14T22:40:53.272Z,4.07
2022-10-14T22:46:03.917Z,4.50
2022-10-14T22:51:07.530Z,4.00
2022-10-14T22:56:11.631Z,4.72
2022-10-14T23:01:15.901Z,5.80
2022-10-14T23:06:17.958Z,4.45
2022-10-14T23:11:21.682Z,5.60
2022-10-14T23:16:25.755Z,5.25
2022-10-14T23:21:30.671Z,5.65
2022-10-14T23:26:34.740Z,8.20
2022-10-14T23:31:38.098Z,9.38
2022-10-14T23:36:40.732Z,10.23
2022-10-14T23:41:43.455Z,9.25
2022-10-14T23:46:46.691Z,12.35
2022-10-14T23:51:48.756Z,10.55
2022-10-14T23:56:50.711Z,11.10
